createdAt,value
2019-03-22T00:00:28.716Z,0.00
2019-03-22T00:01:28.710Z,0.00
2019-03-22T00:02:28.713Z,0.00
2019-03-22T00:03:28.698Z,0.00
2019-03-22T00:04:28.686Z,0.00
2019-03-22T00:05:28.681Z,0.00
2019-03-22T00:06:28.673Z,0.00
2019-03-22T00:07:28.662Z,0.00
2019-03-22T00:08:28.675Z,0.00
2019-03-22T00:09:28.647Z,0.00
2019-03-22T00:10:28.636Z,0.00
2019-03-22T00:11:28.626Z,0.00
2019-03-22T00:12:28.619Z,0.00
2019-03-22T00:13:28.601Z,0.00
2019-03-22T00:14:28.602Z,0.00
2019-03-22T00:15:28.602Z,0.00
2019-03-22T00:16:28.580Z,0.00
2019-03-22T00:17:28.577Z,0.00
2019-03-22T00:18:28.580Z,0.00
2019-03-22T00:19:28.565Z,0.00
2019-03-22T00:20:28.544Z,0.00
2019-03-22T00:21:28.540Z,0.00
2019-03-22T00:22:28.593Z,0.00
2019-03-22T00:23:28.519Z,0.00
2019-03-22T00:24:28.515Z,0.00
2019-03-22T00:25:28.524Z,0.00
2019-03-22T00:26:28.502Z,0.00
2019-03-22T00:27:28.489Z,0.00
2019-03-22T00:28:28.476Z,0.00
2019-03-22T00:29:28.469Z,0.00
2019-03-22T00:30:28.458Z,0.00
2019-03-22T00:31:28.453Z,0.00
2019-03-22T00:32:28.446Z,0.00
2019-03-22T00:33:28.431Z,0.00
2019-03-22T00:34:28.430Z,0.00
2019-03-22T00:35:28.426Z,0.00
2019-03-22T00:36:28.410Z,0.00
2019-03-22T00:37:28.407Z,0.00
2019-03-22T00:38:28.397Z,0.00
2019-03-22T00:39:28.377Z,0.00
2019-03-22T00:40:28.373Z,0.00
2019-03-22T00:41:28.375Z,0.00
2019-03-22T00:42:28.354Z,0.00
2019-03-22T00:43:28.345Z,0.00
2019-03-22T00:44:28.348Z,0.00
2019-03-22T00:45:28.338Z,0.00
2019-03-22T00:46:28.312Z,0.00
2019-03-22T00:47:28.323Z,0.00
2019-03-22T00:48:28.299Z,0.00
2019-03-22T00:49:28.287Z,0.00
2019-03-22T00:50:28.284Z,0.00
2019-03-22T00:51:28.278Z,0.00
2019-03-22T00:52:28.268Z,0.00
2019-03-22T00:53:28.263Z,0.00
2019-03-22T00:54:28.248Z,0.00
2019-03-22T00:55:28.261Z,0.00
2019-03-22T00:56:28.236Z,0.00
2019-03-22T00:57:28.940Z,0.00
2019-03-22T00:58:28.215Z,0.00
2019-03-22T00:59:28.217Z,0.00
2019-03-22T01:00:28.197Z,0.00
2019-03-22T01:01:28.208Z,0.00
2019-03-22T01:02:28.178Z,0.00
2019-03-22T01:03:28.170Z,0.00
2019-03-22T01:04:28.171Z,0.00
2019-03-22T01:05:28.171Z,0.00
2019-03-22T01:06:28.137Z,0.00
2019-03-22T01:07:28.136Z,0.00
2019-03-22T01:08:28.127Z,0.00
2019-03-22T01:09:28.115Z,0.00
2019-03-22T01:10:28.122Z,0.00
2019-03-22T01:11:28.107Z,0.00
2019-03-22T01:12:28.088Z,0.00
2019-03-22T01:13:28.077Z,0.00
2019-03-22T01:14:28.076Z,0.00
2019-03-22T01:15:28.073Z,0.00
2019-03-22T01:16:28.058Z,0.00
2019-03-22T01:17:28.044Z,0.00
2019-03-22T01:18:28.036Z,0.00
2019-03-22T01:19:28.029Z,0.00
2019-03-22T01:20:28.015Z,0.00
2019-03-22T01:21:28.015Z,0.00
2019-03-22T01:22:28.014Z,0.00
2019-03-22T01:23:28.021Z,0.00
2019-03-22T01:24:27.982Z,0.00
2019-03-22T01:25:27.977Z,0.00
2019-03-22T01:26:27.975Z,0.00
2019-03-22T01:27:39.565Z,0.00
2019-03-22T01:28:27.961Z,0.00
2019-03-22T01:29:27.934Z,0.00
2019-03-22T01:30:27.932Z,0.00
2019-03-22T01:31:27.941Z,0.00
2019-03-22T01:32:27.913Z,0.00
2019-03-22T01:33:27.904Z,0.00
2019-03-22T01:34:27.897Z,0.00
2019-03-22T01:35:27.883Z,0.00
2019-03-22T01:36:27.875Z,0.00
2019-03-22T01:37:27.874Z,0.00
2019-03-22T01:38:28.845Z,0.00
2019-03-22T01:39:27.850Z,0.00
2019-03-22T01:40:27.839Z,0.00
2019-03-22T01:41:27.839Z,0.00
2019-03-22T01:42:27.824Z,0.00
2019-03-22T01:43:27.811Z,0.00
2019-03-22T01:44:27.809Z,0.00
2019-03-22T01:45:27.791Z,0.00
2019-03-22T01:46:27.787Z,0.00
2019-03-22T01:47:27.776Z,0.00
2019-03-22T01:48:27.778Z,0.00
2019-03-22T01:49:27.756Z,0.00
2019-03-22T01:50:27.761Z,0.00
2019-03-22T01:51:27.760Z,0.00
2019-03-22T01:52:27.745Z,0.00
2019-03-22T01:53:27.729Z,0.00
2019-03-22T01:54:27.735Z,0.00
2019-03-22T01:55:27.707Z,0.00
2019-03-22T01:56:27.688Z,0.00
2019-03-22T01:57:27.691Z,0.00
2019-03-22T01:58:27.678Z,0.00
2019-03-22T01:59:27.671Z,0.00
2019-03-22T02:00:27.662Z,0.00
2019-03-22T02:01:27.651Z,0.00
2019-03-22T02:02:27.644Z,0.00
2019-03-22T02:03:28.351Z,0.00
2019-03-22T02:04:27.622Z,0.00
2019-03-22T02:05:27.621Z,0.00
2019-03-22T02:06:27.604Z,0.00
2019-03-22T02:07:27.601Z,0.00
2019-03-22T02:08:27.597Z,0.00
2019-03-22T02:09:27.579Z,0.00
2019-03-22T02:10:27.572Z,0.00
2019-03-22T02:11:27.560Z,0.00
2019-03-22T02:12:27.546Z,0.00
2019-03-22T02:13:27.554Z,0.00
2019-03-22T02:14:27.533Z,0.00
2019-03-22T02:15:30.361Z,0.00
2019-03-22T02:16:28.365Z,0.00
2019-03-22T02:17:27.503Z,0.00
2019-03-22T02:18:27.501Z,0.00
2019-03-22T02:19:27.491Z,0.00
2019-03-22T02:20:27.483Z,0.00
2019-03-22T02:21:27.467Z,0.00
2019-03-22T02:22:27.462Z,0.00
2019-03-22T02:23:27.458Z,0.00
2019-03-22T02:24:27.443Z,0.00
2019-03-22T02:25:27.432Z,0.00
2019-03-22T02:26:27.433Z,0.00
2019-03-22T02:27:27.416Z,0.00
2019-03-22T02:28:27.407Z,0.00
2019-03-22T02:29:27.395Z,0.00
2019-03-22T02:30:27.402Z,0.00
2019-03-22T02:31:27.389Z,0.00
2019-03-22T02:32:27.401Z,0.00
2019-03-22T02:33:27.379Z,0.00
2019-03-22T02:34:27.365Z,0.00
2019-03-22T02:35:29.358Z,0.00
2019-03-22T02:36:27.393Z,0.00
2019-03-22T02:37:27.349Z,0.00
2019-03-22T02:38:27.409Z,0.00
2019-03-22T02:39:27.425Z,0.00
2019-03-22T02:40:27.342Z,0.00
2019-03-22T02:41:27.322Z,0.00
2019-03-22T02:42:27.282Z,0.00
2019-03-22T02:43:27.294Z,0.00
2019-03-22T02:44:27.270Z,0.00
2019-03-22T02:45:34.984Z,0.00
2019-03-22T02:47:20.656Z,0.00
2019-03-22T02:48:20.627Z,0.00
2019-03-22T02:50:18.784Z,0.00
2019-03-22T02:51:14.111Z,0.00
2019-03-22T02:52:14.097Z,0.00
2019-03-22T02:53:14.096Z,0.00
2019-03-22T02:54:14.074Z,0.00
2019-03-22T02:55:14.066Z,0.00
2019-03-22T02:56:14.188Z,0.00
2019-03-22T02:57:14.053Z,0.00
2019-03-22T02:58:20.624Z,0.00
2019-03-22T02:59:14.053Z,0.00
2019-03-22T03:00:14.037Z,0.00
2019-03-22T03:01:14.563Z,0.00
2019-03-22T03:02:14.561Z,0.00
2019-03-22T03:03:13.995Z,0.00
2019-03-22T03:04:13.989Z,0.00
2019-03-22T03:05:13.982Z,0.00
2019-03-22T03:06:13.968Z,0.00
2019-03-22T03:07:13.964Z,0.00
2019-03-22T03:08:13.960Z,0.00
2019-03-22T03:09:13.942Z,0.00
2019-03-22T03:10:13.938Z,0.00
2019-03-22T03:11:13.921Z,0.00
2019-03-22T03:12:13.936Z,0.00
2019-03-22T03:13:13.911Z,0.00
2019-03-22T03:14:13.902Z,0.00
2019-03-22T03:15:13.982Z,0.00
2019-03-22T03:16:13.884Z,0.00
2019-03-22T03:17:13.869Z,0.00
2019-03-22T03:18:13.853Z,0.00
2019-03-22T03:19:13.847Z,0.00
2019-03-22T03:20:13.846Z,0.00
2019-03-22T03:21:13.825Z,0.00
2019-03-22T03:22:14.570Z,0.00
2019-03-22T03:23:13.815Z,0.00
2019-03-22T03:24:13.831Z,0.00
2019-03-22T03:25:13.805Z,0.00
2019-03-22T03:26:13.797Z,0.00
2019-03-22T03:27:13.778Z,0.00
2019-03-22T03:28:13.768Z,0.00
2019-03-22T03:29:13.765Z,0.00
2019-03-22T03:30:13.752Z,0.00
2019-03-22T03:31:13.745Z,0.00
2019-03-22T03:32:13.733Z,0.00
2019-03-22T03:33:13.720Z,0.00
2019-03-22T03:34:13.715Z,0.00
2019-03-22T03:35:13.708Z,0.00
2019-03-22T03:36:13.697Z,0.00
2019-03-22T03:37:13.685Z,0.00
2019-03-22T03:38:13.699Z,0.00
2019-03-22T03:39:13.660Z,0.00
2019-03-22T03:40:14.592Z,0.00
2019-03-22T03:41:13.644Z,0.00
2019-03-22T03:42:13.635Z,0.00
2019-03-22T03:43:13.635Z,0.00
2019-03-22T03:44:13.617Z,0.00
2019-03-22T03:45:13.607Z,0.00
2019-03-22T03:46:13.632Z,0.00
2019-03-22T03:47:13.590Z,0.00
2019-03-22T03:48:13.581Z,0.00
2019-03-22T03:49:13.580Z,0.00
2019-03-22T03:50:13.560Z,0.00
2019-03-22T03:51:13.555Z,0.00
2019-03-22T03:52:13.543Z,0.00
2019-03-22T03:53:13.534Z,0.00
2019-03-22T03:54:13.524Z,0.00
2019-03-22T03:55:13.542Z,0.00
2019-03-22T03:56:13.509Z,0.00
2019-03-22T03:57:13.495Z,0.00
2019-03-22T03:58:13.503Z,0.00
2019-03-22T03:59:13.556Z,0.00
2019-03-22T04:00:13.471Z,0.00
2019-03-22T04:01:13.459Z,0.00
2019-03-22T04:02:13.463Z,0.00
2019-03-22T04:03:13.451Z,0.00
2019-03-22T04:04:13.485Z,0.00
2019-03-22T04:05:14.641Z,0.00
2019-03-22T04:06:13.423Z,0.00
2019-03-22T04:07:13.403Z,0.00
2019-03-22T04:08:13.400Z,0.00
2019-03-22T04:09:13.391Z,0.00
2019-03-22T04:10:13.393Z,0.00
2019-03-22T04:11:13.366Z,0.00
2019-03-22T04:12:13.357Z,0.00
2019-03-22T04:13:13.349Z,0.00
2019-03-22T04:14:13.336Z,0.00
2019-03-22T04:15:13.338Z,0.00
2019-03-22T04:16:13.331Z,0.00
2019-03-22T04:17:13.308Z,0.00
2019-03-22T04:18:13.304Z,0.00
2019-03-22T04:19:13.297Z,0.00
2019-03-22T04:20:13.286Z,0.00
2019-03-22T04:21:13.275Z,0.00
2019-03-22T04:22:13.264Z,0.00
2019-03-22T04:23:13.259Z,0.00
2019-03-22T04:24:13.254Z,0.00
2019-03-22T04:25:13.239Z,0.00
2019-03-22T04:26:14.083Z,0.00
2019-03-22T04:27:13.218Z,0.00
2019-03-22T04:28:13.223Z,0.00
2019-03-22T04:29:13.207Z,0.00
2019-03-22T04:30:13.194Z,0.00
2019-03-22T04:31:13.195Z,0.00
2019-03-22T04:32:13.185Z,0.00
2019-03-22T04:33:13.184Z,0.00
2019-03-22T04:34:13.161Z,0.00
2019-03-22T04:35:13.154Z,0.00
2019-03-22T04:36:13.149Z,0.00
2019-03-22T04:37:13.128Z,0.00
2019-03-22T04:38:13.124Z,0.00
2019-03-22T04:39:13.133Z,0.00
2019-03-22T04:40:13.095Z,0.00
2019-03-22T04:41:13.084Z,0.00
2019-03-22T04:42:13.595Z,0.00
2019-03-22T04:43:13.070Z,0.00
2019-03-22T04:44:13.060Z,0.00
2019-03-22T04:45:13.050Z,0.00
2019-03-22T04:46:13.043Z,0.00
2019-03-22T04:47:13.029Z,0.00
2019-03-22T04:48:13.027Z,0.00
2019-03-22T04:49:13.013Z,0.00
2019-03-22T04:50:13.006Z,0.00
2019-03-22T04:51:12.990Z,0.00
2019-03-22T04:52:12.999Z,0.00
2019-03-22T04:53:12.984Z,0.00
2019-03-22T04:54:12.973Z,0.00
2019-03-22T04:55:12.960Z,0.00
2019-03-22T04:56:12.950Z,0.00
2019-03-22T04:57:12.945Z,0.00
2019-03-22T04:58:12.933Z,0.00
2019-03-22T04:59:18.887Z,0.00
2019-03-22T05:00:12.938Z,0.00
2019-03-22T05:01:12.894Z,0.00
2019-03-22T05:02:12.890Z,0.00
2019-03-22T05:03:12.899Z,0.00
2019-03-22T05:04:12.875Z,0.00
2019-03-22T05:05:12.861Z,0.00
2019-03-22T05:06:12.846Z,0.00
2019-03-22T05:07:12.841Z,0.00
2019-03-22T05:08:13.594Z,0.00
2019-03-22T05:09:12.825Z,0.00
2019-03-22T05:10:12.813Z,0.00
2019-03-22T05:11:12.801Z,0.00
2019-03-22T05:12:14.242Z,0.00
2019-03-22T05:13:12.785Z,0.00
2019-03-22T05:14:12.777Z,0.00
2019-03-22T05:15:12.770Z,0.00
2019-03-22T05:16:12.766Z,0.00
2019-03-22T05:17:12.756Z,5.63
2019-03-22T05:18:12.739Z,5.63
2019-03-22T05:19:12.731Z,5.63
2019-03-22T05:20:12.723Z,5.63
2019-03-22T05:21:12.715Z,5.63
2019-03-22T05:22:12.709Z,5.63
2019-03-22T05:23:12.694Z,11.25
2019-03-22T05:24:12.685Z,11.25
2019-03-22T05:25:12.669Z,11.25
2019-03-22T05:26:12.656Z,11.25
2019-03-22T05:27:12.657Z,16.88
2019-03-22T05:28:12.642Z,16.88
2019-03-22T05:29:12.637Z,16.88
2019-03-22T05:30:12.620Z,22.50
2019-03-22T05:31:12.621Z,22.50
2019-03-22T05:32:12.614Z,22.50
2019-03-22T05:33:12.599Z,28.13
2019-03-22T05:34:12.590Z,28.13
2019-03-22T05:35:12.576Z,33.75
2019-03-22T05:36:12.575Z,33.75
2019-03-22T05:37:12.557Z,39.38
2019-03-22T05:38:12.555Z,45.00
2019-03-22T05:39:12.544Z,45.00
2019-03-22T05:40:12.528Z,50.63
2019-03-22T05:41:13.748Z,56.25
2019-03-22T05:42:12.512Z,61.88
2019-03-22T05:43:12.498Z,67.50
2019-03-22T05:44:12.499Z,73.13
2019-03-22T05:45:12.487Z,73.13
2019-03-22T05:46:12.471Z,78.75
2019-03-22T05:47:12.463Z,90.00
2019-03-22T05:48:12.450Z,90.00
2019-03-22T05:49:12.441Z,95.63
2019-03-22T05:50:12.430Z,101.25
2019-03-22T05:51:12.426Z,106.88
2019-03-22T05:52:12.413Z,112.50
2019-03-22T05:53:12.405Z,112.50
2019-03-22T05:54:12.402Z,118.13
2019-03-22T05:55:12.387Z,129.38
2019-03-22T05:56:12.376Z,135.00
2019-03-22T05:57:13.752Z,140.63
2019-03-22T05:58:12.359Z,151.88
2019-03-22T05:59:12.342Z,157.50
2019-03-22T06:00:12.336Z,157.50
2019-03-22T06:01:12.323Z,168.75
2019-03-22T06:02:12.322Z,174.38
2019-03-22T06:03:12.321Z,180.00
2019-03-22T06:04:12.306Z,191.25
2019-03-22T06:05:12.289Z,191.25
2019-03-22T06:06:12.281Z,196.88
2019-03-22T06:07:12.297Z,196.88
2019-03-22T06:08:12.258Z,202.50
2019-03-22T06:09:12.247Z,208.13
2019-03-22T06:10:12.251Z,213.75
2019-03-22T06:11:12.240Z,219.38
2019-03-22T06:12:12.224Z,230.63
2019-03-22T06:13:12.225Z,236.25
2019-03-22T06:14:12.203Z,236.25
2019-03-22T06:15:12.204Z,241.88
2019-03-22T06:16:12.196Z,247.50
2019-03-22T06:17:12.180Z,253.13
2019-03-22T06:18:12.176Z,264.38
2019-03-22T06:19:12.158Z,270.00
2019-03-22T06:20:12.159Z,281.25
2019-03-22T06:21:12.172Z,286.88
2019-03-22T06:22:12.132Z,298.13
2019-03-22T06:23:12.120Z,309.38
2019-03-22T06:24:12.108Z,326.25
2019-03-22T06:25:12.104Z,331.88
2019-03-22T06:26:12.099Z,348.75
2019-03-22T06:27:12.085Z,371.25
2019-03-22T06:28:12.307Z,393.75
2019-03-22T06:29:12.133Z,410.63
2019-03-22T06:30:13.720Z,399.38
2019-03-22T06:31:12.536Z,393.75
2019-03-22T06:32:12.127Z,405.00
2019-03-22T06:33:13.195Z,388.13
2019-03-22T06:34:12.191Z,388.13
2019-03-22T06:35:13.062Z,393.75
2019-03-22T06:36:12.355Z,393.75
2019-03-22T06:37:19.416Z,393.75
2019-03-22T06:38:13.553Z,399.38
2019-03-22T06:39:12.065Z,410.63
2019-03-22T06:40:15.502Z,410.63
2019-03-22T06:41:12.083Z,410.63
2019-03-22T06:42:50.723Z,416.25
2019-03-22T06:43:12.713Z,421.88
2019-03-22T06:44:19.694Z,433.13
2019-03-22T06:46:05.383Z,455.63
2019-03-22T06:47:05.345Z,461.25
2019-03-22T06:49:06.658Z,478.13
2019-03-22T06:50:06.532Z,506.25
2019-03-22T06:51:59.986Z,528.75
2019-03-22T06:52:52.272Z,517.50
2019-03-22T06:53:52.229Z,511.88
2019-03-22T06:54:52.233Z,511.88
2019-03-22T06:55:52.215Z,511.88
2019-03-22T06:56:52.202Z,517.50
2019-03-22T06:57:52.170Z,517.50
2019-03-22T06:58:52.165Z,523.13
2019-03-22T06:59:52.165Z,534.38
2019-03-22T07:00:52.143Z,545.63
2019-03-22T07:01:52.143Z,551.25
2019-03-22T07:02:52.150Z,573.75
2019-03-22T07:03:52.125Z,601.88
2019-03-22T07:04:52.130Z,618.75
2019-03-22T07:05:52.107Z,675.00
2019-03-22T07:06:52.113Z,759.38
2019-03-22T07:07:52.090Z,793.13
2019-03-22T07:08:52.088Z,765.00
2019-03-22T07:09:52.127Z,736.88
2019-03-22T07:10:52.805Z,804.38
2019-03-22T07:11:52.065Z,843.75
2019-03-22T07:12:52.167Z,815.63
2019-03-22T07:13:52.041Z,826.88
2019-03-22T07:14:52.034Z,849.38
2019-03-22T07:15:52.021Z,900.00
2019-03-22T07:16:52.022Z,871.88
2019-03-22T07:17:59.751Z,871.88
2019-03-22T07:19:48.886Z,849.38
2019-03-22T07:20:47.707Z,838.13
2019-03-22T07:21:47.726Z,821.25
2019-03-22T07:22:47.728Z,821.25
2019-03-22T07:23:47.677Z,826.88
2019-03-22T07:24:47.659Z,838.13
2019-03-22T07:25:47.653Z,843.75
2019-03-22T07:26:47.647Z,866.25
2019-03-22T07:27:47.652Z,916.88
2019-03-22T07:28:47.630Z,900.00
2019-03-22T07:29:47.622Z,900.00
2019-03-22T07:30:47.619Z,922.50
2019-03-22T07:31:47.627Z,939.38
2019-03-22T07:32:47.599Z,995.63
2019-03-22T07:33:47.601Z,978.75
2019-03-22T07:34:47.587Z,945.00
2019-03-22T07:35:47.704Z,945.00
2019-03-22T07:36:47.572Z,916.88
2019-03-22T07:37:47.560Z,939.38
2019-03-22T07:38:47.553Z,911.25
2019-03-22T07:39:47.540Z,933.75
2019-03-22T07:40:47.529Z,995.63
2019-03-22T07:41:47.547Z,922.50
2019-03-22T07:42:50.448Z,883.13
2019-03-22T07:43:55.215Z,894.38
2019-03-22T07:46:13.596Z,832.50
2019-03-22T07:46:41.489Z,877.50
2019-03-22T07:48:50.022Z,849.38
2019-03-22T07:49:34.891Z,849.38
2019-03-22T07:51:28.458Z,945.00
2019-03-22T07:52:50.468Z,1051.88
2019-03-22T07:53:28.591Z,1057.50
2019-03-22T07:54:28.333Z,990.00
2019-03-22T07:55:28.334Z,1147.50
2019-03-22T07:56:28.321Z,1310.63
2019-03-22T07:57:28.385Z,1170.00
2019-03-22T07:58:28.314Z,1125.00
2019-03-22T07:59:28.298Z,1170.00
2019-03-22T08:00:30.989Z,1271.25
2019-03-22T08:01:28.303Z,1299.38
2019-03-22T08:02:28.280Z,1181.25
2019-03-22T08:03:28.273Z,1164.38
2019-03-22T08:04:28.258Z,1136.25
2019-03-22T08:05:28.246Z,1051.88
2019-03-22T08:06:28.241Z,1012.50
2019-03-22T08:07:28.245Z,956.25
2019-03-22T08:08:28.227Z,911.25
2019-03-22T08:09:28.222Z,888.75
2019-03-22T08:10:28.210Z,838.13
2019-03-22T08:11:28.238Z,866.25
2019-03-22T08:12:28.200Z,1001.25
2019-03-22T08:13:28.191Z,1057.50
2019-03-22T08:14:28.185Z,1113.75
2019-03-22T08:15:28.269Z,1175.63
2019-03-22T08:16:28.173Z,1226.25
2019-03-22T08:17:28.216Z,1237.50
2019-03-22T08:18:28.158Z,1344.38
2019-03-22T08:19:28.158Z,2086.88
2019-03-22T08:20:28.161Z,1918.13
2019-03-22T08:21:28.138Z,1738.13
2019-03-22T08:22:28.123Z,1546.88
2019-03-22T08:23:28.139Z,1608.75
2019-03-22T08:24:28.147Z,1861.88
2019-03-22T08:25:28.108Z,2109.38
2019-03-22T08:26:28.099Z,1957.50
2019-03-22T08:27:28.113Z,1558.13
2019-03-22T08:28:28.126Z,1305.00
2019-03-22T08:29:28.116Z,1265.63
2019-03-22T08:30:28.082Z,1507.50
2019-03-22T08:31:28.090Z,1811.25
2019-03-22T08:32:28.075Z,1816.88
2019-03-22T08:33:28.061Z,2030.63
2019-03-22T08:34:28.050Z,2041.88
2019-03-22T08:35:28.039Z,1496.25
2019-03-22T08:36:28.038Z,1513.13
2019-03-22T08:37:28.028Z,1563.75
2019-03-22T08:38:28.017Z,2131.88
2019-03-22T08:39:28.016Z,2216.25
2019-03-22T08:40:28.011Z,1631.25
2019-03-22T08:41:28.006Z,1923.75
2019-03-22T08:42:27.988Z,2514.38
2019-03-22T08:43:28.010Z,2863.13
2019-03-22T08:44:27.984Z,2795.63
2019-03-22T08:45:28.015Z,2908.13
2019-03-22T08:46:27.976Z,3020.63
2019-03-22T08:47:33.619Z,3144.38
2019-03-22T08:48:27.961Z,3498.75
2019-03-22T08:49:28.043Z,3583.13
2019-03-22T08:50:28.873Z,3667.50
2019-03-22T08:51:29.893Z,4387.50
2019-03-22T08:52:27.941Z,4803.75
2019-03-22T08:53:27.931Z,4882.50
2019-03-22T08:54:27.938Z,4741.88
2019-03-22T08:55:27.921Z,4590.00
2019-03-22T08:56:27.950Z,4753.13
2019-03-22T08:57:27.911Z,5011.88
2019-03-22T08:58:27.913Z,5433.75
2019-03-22T08:59:27.925Z,5490.00
2019-03-22T09:00:38.739Z,5124.38
2019-03-22T09:01:27.924Z,5023.13
2019-03-22T09:02:27.896Z,4966.88
2019-03-22T09:03:27.895Z,4916.25
2019-03-22T09:04:27.898Z,4978.13
2019-03-22T09:05:27.906Z,5158.13
2019-03-22T09:06:27.895Z,5158.13
2019-03-22T09:07:27.943Z,4989.38
2019-03-22T09:08:27.891Z,5073.75
2019-03-22T09:09:40.717Z,5169.38
2019-03-22T09:10:27.895Z,5355.00
2019-03-22T09:11:27.942Z,5445.00
2019-03-22T09:12:27.885Z,5445.00
2019-03-22T09:13:27.887Z,5360.63
2019-03-22T09:14:27.885Z,5506.88
2019-03-22T09:15:40.231Z,5377.50
2019-03-22T09:16:30.632Z,5208.75
2019-03-22T09:17:27.899Z,5343.75
2019-03-22T09:18:27.885Z,5371.88
2019-03-22T09:19:27.881Z,5512.50
2019-03-22T09:20:27.884Z,5630.63
2019-03-22T09:21:27.883Z,5478.75
2019-03-22T09:22:27.883Z,5355.00
2019-03-22T09:23:27.928Z,5405.63
2019-03-22T09:24:38.647Z,5557.50
2019-03-22T09:25:27.895Z,5681.25
2019-03-22T09:26:27.947Z,5748.75
2019-03-22T09:27:27.904Z,5484.38
2019-03-22T09:28:27.892Z,5405.63
2019-03-22T09:29:27.896Z,5433.75
2019-03-22T09:30:27.936Z,5377.50
2019-03-22T09:31:27.911Z,5405.63
2019-03-22T09:32:27.905Z,5321.25
2019-03-22T09:33:27.937Z,5310.00
2019-03-22T09:34:33.755Z,5236.88
2019-03-22T09:35:27.922Z,5124.38
2019-03-22T09:36:27.959Z,5349.38
2019-03-22T09:37:27.919Z,5782.50
2019-03-22T09:38:28.715Z,5681.25
2019-03-22T09:39:27.948Z,5647.50
2019-03-22T09:40:27.918Z,5625.00
2019-03-22T09:41:27.921Z,5782.50
2019-03-22T09:42:27.932Z,6187.50
2019-03-22T09:43:27.939Z,6080.63
2019-03-22T09:44:28.387Z,5625.00
2019-03-22T09:45:27.942Z,5445.00
2019-03-22T09:46:27.947Z,5310.00
2019-03-22T09:47:27.993Z,5433.75
2019-03-22T09:48:27.953Z,5416.88
2019-03-22T09:49:27.969Z,5259.38
2019-03-22T09:50:27.993Z,5253.75
2019-03-22T09:51:27.981Z,4966.88
2019-03-22T09:52:27.971Z,5068.13
2019-03-22T09:53:30.374Z,5315.63
2019-03-22T09:54:27.966Z,5293.13
2019-03-22T09:55:27.972Z,5236.88
2019-03-22T09:56:27.973Z,5315.63
2019-03-22T09:57:27.982Z,5388.75
2019-03-22T09:58:27.981Z,5293.13
2019-03-22T09:59:27.998Z,5152.50
2019-03-22T10:00:27.995Z,5051.25
2019-03-22T10:01:28.010Z,5011.88
2019-03-22T10:02:28.000Z,5068.13
2019-03-22T10:03:28.013Z,5068.13
2019-03-22T10:04:28.060Z,4978.13
2019-03-22T10:05:28.018Z,4927.50
2019-03-22T10:06:28.077Z,4865.63
2019-03-22T10:07:28.024Z,5017.50
2019-03-22T10:08:28.068Z,5079.38
2019-03-22T10:09:28.036Z,5113.13
2019-03-22T10:10:28.149Z,5090.63
2019-03-22T10:11:28.052Z,5101.88
2019-03-22T10:12:28.046Z,5225.63
2019-03-22T10:13:28.049Z,5203.13
2019-03-22T10:14:28.085Z,5220.00
2019-03-22T10:15:28.052Z,5169.38
2019-03-22T10:16:28.095Z,4921.88
2019-03-22T10:17:28.092Z,4955.63
2019-03-22T10:18:28.082Z,5321.25
2019-03-22T10:19:28.078Z,5394.38
2019-03-22T10:20:28.121Z,5265.00
2019-03-22T10:21:28.083Z,5231.25
2019-03-22T10:22:28.191Z,5293.13
2019-03-22T10:23:28.087Z,5473.13
2019-03-22T10:24:28.086Z,5580.00
2019-03-22T10:25:28.152Z,5068.13
2019-03-22T10:26:28.099Z,5045.63
2019-03-22T10:27:28.120Z,5045.63
2019-03-22T10:28:28.132Z,4882.50
2019-03-22T10:29:28.112Z,5281.88
2019-03-22T10:30:29.005Z,5400.00
2019-03-22T10:31:37.225Z,4770.00
2019-03-22T10:32:28.123Z,4786.88
2019-03-22T10:33:28.154Z,4950.00
2019-03-22T10:34:28.135Z,4843.13
2019-03-22T10:35:28.231Z,4865.63
2019-03-22T10:36:28.148Z,5028.75
2019-03-22T10:37:28.188Z,5265.00
2019-03-22T10:38:31.710Z,5287.50
2019-03-22T10:39:28.213Z,5394.38
2019-03-22T10:40:28.159Z,5011.88
2019-03-22T10:41:28.166Z,4961.25
2019-03-22T10:42:28.168Z,5051.25
2019-03-22T10:43:28.206Z,4815.00
2019-03-22T10:44:28.210Z,4601.25
2019-03-22T10:45:28.208Z,4657.50
2019-03-22T10:46:28.184Z,4730.63
2019-03-22T10:47:28.276Z,4775.63
2019-03-22T10:48:28.205Z,4921.88
2019-03-22T10:49:28.207Z,4888.13
2019-03-22T10:50:28.249Z,4938.75
2019-03-22T10:51:28.211Z,5000.63
2019-03-22T10:52:28.218Z,5073.75
2019-03-22T10:53:28.230Z,5225.63
2019-03-22T10:54:28.254Z,5293.13
2019-03-22T10:55:30.233Z,5276.25
2019-03-22T10:56:28.243Z,5180.63
2019-03-22T10:57:28.249Z,5236.88
2019-03-22T10:58:28.246Z,5360.63
2019-03-22T10:59:28.254Z,5484.38
2019-03-22T11:00:28.258Z,5394.38
2019-03-22T11:01:28.256Z,5439.38
2019-03-22T11:02:28.267Z,5321.25
2019-03-22T11:03:28.298Z,5281.88
2019-03-22T11:04:28.282Z,5130.00
2019-03-22T11:05:28.280Z,4995.00
2019-03-22T11:06:28.297Z,4910.63
2019-03-22T11:07:30.032Z,5011.88
2019-03-22T11:08:28.305Z,4966.88
2019-03-22T11:09:28.305Z,4888.13
2019-03-22T11:10:28.318Z,4860.00
2019-03-22T11:11:28.324Z,5146.88
2019-03-22T11:12:28.319Z,5203.13
2019-03-22T11:13:28.322Z,4944.38
2019-03-22T11:14:28.329Z,5017.50
2019-03-22T11:15:28.339Z,5118.75
2019-03-22T11:16:28.338Z,5107.50
2019-03-22T11:17:28.348Z,4860.00
2019-03-22T11:18:37.004Z,4905.00
2019-03-22T11:19:28.356Z,4955.63
2019-03-22T11:20:28.361Z,4843.13
2019-03-22T11:21:28.367Z,4809.38
2019-03-22T11:22:28.376Z,4736.25
2019-03-22T11:23:28.381Z,4663.13
2019-03-22T11:24:28.382Z,4590.00
2019-03-22T11:25:28.394Z,4747.50
2019-03-22T11:26:28.389Z,4792.50
2019-03-22T11:27:28.396Z,4775.63
2019-03-22T11:28:28.412Z,4843.13
2019-03-22T11:29:28.418Z,4921.88
2019-03-22T11:30:28.420Z,4798.13
2019-03-22T11:31:32.339Z,4668.75
2019-03-22T11:32:28.431Z,4781.25
2019-03-22T11:33:28.438Z,4803.75
2019-03-22T11:34:28.435Z,4623.75
2019-03-22T11:35:28.449Z,4888.13
2019-03-22T11:36:28.447Z,4888.13
2019-03-22T11:37:28.455Z,4691.25
2019-03-22T11:38:28.460Z,4770.00
2019-03-22T11:39:28.461Z,5045.63
2019-03-22T11:40:28.471Z,4747.50
2019-03-22T11:41:28.478Z,4393.13
2019-03-22T11:42:28.517Z,4432.50
2019-03-22T11:43:28.491Z,4500.00
2019-03-22T11:44:28.494Z,4629.38
2019-03-22T11:45:28.501Z,5073.75
2019-03-22T11:46:28.506Z,4966.88
2019-03-22T11:47:28.513Z,4815.00
2019-03-22T11:48:28.513Z,4455.00
2019-03-22T11:49:28.517Z,4218.75
2019-03-22T11:50:29.078Z,4128.75
2019-03-22T11:51:28.526Z,4033.13
2019-03-22T11:52:28.537Z,4055.63
2019-03-22T11:53:28.552Z,4044.38
2019-03-22T11:54:28.547Z,4072.50
2019-03-22T11:55:28.552Z,4201.88
2019-03-22T11:56:28.555Z,4128.75
2019-03-22T11:57:28.566Z,3988.13
2019-03-22T11:58:28.569Z,4111.88
2019-03-22T11:59:28.573Z,4128.75
2019-03-22T12:00:28.588Z,4033.13
2019-03-22T12:01:28.586Z,3999.38
2019-03-22T12:02:28.593Z,3960.00
2019-03-22T12:03:28.597Z,3960.00
2019-03-22T12:04:28.602Z,4078.13
2019-03-22T12:05:28.633Z,4083.75
2019-03-22T12:06:28.615Z,3864.38
2019-03-22T12:07:29.510Z,3931.88
2019-03-22T12:08:28.621Z,3841.88
2019-03-22T12:09:28.643Z,3785.63
2019-03-22T12:10:28.637Z,3853.13
2019-03-22T12:11:28.643Z,3864.38
2019-03-22T12:12:28.651Z,3808.13
2019-03-22T12:13:28.656Z,3695.63
2019-03-22T12:14:28.659Z,3645.00
2019-03-22T12:15:28.665Z,3571.88
2019-03-22T12:16:28.674Z,3504.38
2019-03-22T12:17:29.520Z,3571.88
2019-03-22T12:18:28.682Z,3521.25
2019-03-22T12:19:28.753Z,3476.25
2019-03-22T12:20:28.693Z,3442.50
2019-03-22T12:21:28.704Z,3459.38
2019-03-22T12:22:28.701Z,3459.38
2019-03-22T12:23:29.527Z,3493.13
2019-03-22T12:24:28.714Z,3543.75
2019-03-22T12:25:28.724Z,3442.50
2019-03-22T12:26:28.721Z,3391.88
2019-03-22T12:27:36.240Z,3476.25
2019-03-22T12:28:28.734Z,3498.75
2019-03-22T12:29:28.747Z,3425.63
2019-03-22T12:30:28.760Z,3313.13
2019-03-22T12:31:28.753Z,3251.25
2019-03-22T12:32:32.365Z,3217.50
2019-03-22T12:33:28.757Z,3223.13
2019-03-22T12:34:28.797Z,3228.75
2019-03-22T12:35:28.767Z,3127.50
2019-03-22T12:36:28.780Z,3133.13
2019-03-22T12:37:28.787Z,3065.63
2019-03-22T12:38:28.787Z,2986.88
2019-03-22T12:39:28.793Z,2936.25
2019-03-22T12:40:28.800Z,2857.50
2019-03-22T12:41:28.798Z,2913.75
2019-03-22T12:42:28.802Z,3195.00
2019-03-22T12:43:28.810Z,3245.63
2019-03-22T12:44:28.818Z,2913.75
2019-03-22T12:45:28.823Z,2835.00
2019-03-22T12:46:28.832Z,2784.38
2019-03-22T12:47:28.832Z,2722.50
2019-03-22T12:48:28.836Z,2795.63